Portada
METAR-TAF:

METAR-TAF

Aeroports :

La Paz, Mèxic

latitud: 24-04N, longitud: 110-22W, altitud: 21 m

Observació

L'informe es va fer fa 7 hores i 11 minuts, a les 05:41 UTC
Vent calma
Temperatura 19°C
Humitat 73%
Pressió 1017 hPa
Visibilitat: 16.1 km
Cel clar

METAR: MMLP 300541Z 00000KT 10SM SKC 19/14 A3002 NOSIG

Hora: 05:52 (12:52 UTC)

Pronòstic

L'informe es va fer fa 8 hores i 10 minuts, a les 04:42 UTC
Pronòstic vàlid del 30 a les 06 UTC al 01 a les 06 UTC
Vent kt del Nord
Visibilitat: 10 km
Cel ennuvolat a una alçada de 20000 ft
A partir de les 30 a les 1800 UTC
Vent 10 kt del Nord
Visibilitat: 10 km
Cel ennuvolat a una alçada de 20000 ft
A partir de les 01 a les 0300 UTC
Vent 5 kt del Nord/Nord-Oest
Visibilitat: 10 km
Cel ennuvolat a una alçada de 20000 ft

TAF: MMLP 300442Z 3006/0106 00000KT P6SM BKN200 FM301800 35010KT P6SM BKN200 FM010300 33005KT P6SM BKN200

Observacions i pronòstics meteorològics de més de 4000 aeroports (METAR i TAF).

Les estacions disponibles són els punts grocs i vermells al mapa.

Posi el ratolí al punt desitjat per veure el nom de l'estació.

Feu clic per veure les observacions i els pronòstics meteorològics.

Per canviar el mapa: feu clic els botons verds amb una creu de color negre per apropar; al botó verd amb un guió per allunyar la imatge; o en les fletxes verdes per a mapes adjacents.


METAR-TAF: